TimeCST,TemperatureF,Dew PointF,Humidity,Sea Level PressureIn,VisibilityMPH,Wind Direction,Wind SpeedMPH,Gust SpeedMPH,PrecipitationIn,Events,Conditions,WindDirDegrees,DateUTC
12:15 AM,50.7,46.2,85,30.11,5.0,SSE,10.4,-,N/A,,Haze,160,2012-11-22 06:15:00
12:35 AM,50.0,45.9,86,30.11,5.0,South,10.4,-,N/A,,Clear,170,2012-11-22 06:35:00
12:55 AM,50.2,45.9,85,30.11,5.0,South,10.4,-,N/A,,Clear,170,2012-11-22 06:55:00
1:15 AM,50.5,46.0,85,30.11,5.0,South,10.4,-,N/A,,Haze,170,2012-11-22 07:15:00
1:35 AM,50.2,45.9,85,30.11,5.0,South,9.2,-,N/A,,Clear,170,2012-11-22 07:35:00
1:55 AM,50.0,45.7,85,30.10,5.0,South,10.4,-,N/A,,Clear,170,2012-11-22 07:55:00
2:15 AM,50.0,45.5,85,30.10,5.0,South,11.5,-,N/A,,Clear,170,2012-11-22 08:15:00
2:35 AM,50.0,45.5,85,30.10,5.0,South,9.2,-,N/A,,Clear,170,2012-11-22 08:35:00
2:55 AM,50.0,45.7,85,30.09,5.0,South,10.4,16.1,N/A,,Clear,170,2012-11-22 08:55:00
3:15 AM,50.0,45.5,85,30.08,5.0,South,11.5,-,N/A,,Clear,170,2012-11-22 09:15:00
3:35 AM,50.0,45.5,85,30.07,5.0,South,11.5,-,N/A,,Clear,180,2012-11-22 09:35:00
3:55 AM,50.2,45.7,85,30.07,5.0,South,11.5,-,N/A,,Clear,180,2012-11-22 09:55:00
4:15 AM,50.0,45.5,85,30.06,5.0,South,11.5,-,N/A,,Clear,180,2012-11-22 10:15:00
4:35 AM,49.1,45.1,86,30.05,5.0,South,10.4,-,N/A,,Clear,170,2012-11-22 10:35:00
4:55 AM,48.9,45.5,88,30.06,5.0,South,6.9,-,N/A,,Clear,190,2012-11-22 10:55:00
5:15 AM,48.7,45.1,87,30.06,5.0,South,10.4,-,N/A,,Clear,180,2012-11-22 11:15:00
5:35 AM,48.6,45.1,88,30.05,5.0,South,9.2,-,N/A,,Clear,180,2012-11-22 11:35:00
5:55 AM,48.6,45.1,88,30.05,5.0,South,10.4,-,N/A,,Clear,180,2012-11-22 11:55:00
6:15 AM,48.6,45.1,88,30.05,5.0,South,9.2,-,N/A,,Clear,180,2012-11-22 12:15:00
6:35 AM,48.4,45.0,88,30.05,5.0,South,9.2,-,N/A,,Clear,180,2012-11-22 12:35:00
6:55 AM,48.4,45.1,89,30.04,4.0,South,12.7,-,N/A,,Clear,180,2012-11-22 12:55:00
7:15 AM,48.7,45.1,87,30.04,4.0,South,5.8,-,N/A,,Clear,190,2012-11-22 13:15:00
7:35 AM,50.0,45.7,85,30.04,4.0,South,10.4,16.1,N/A,,Clear,180,2012-11-22 13:35:00
7:55 AM,50.4,45.9,85,30.03,5.0,South,12.7,-,N/A,,Clear,180,2012-11-22 13:55:00
8:15 AM,51.6,46.2,82,30.03,5.0,South,12.7,19.6,N/A,,Haze,170,2012-11-22 14:15:00
8:35 AM,52.9,46.4,79,30.02,7.0,South,16.1,21.9,N/A,,Scattered Clouds,180,2012-11-22 14:35:00
8:55 AM,54.7,47.3,76,30.03,7.0,South,11.5,19.6,N/A,,Scattered Clouds,190,2012-11-22 14:55:00
9:15 AM,55.8,47.3,73,30.02,10.0,South,11.5,18.4,N/A,,Scattered Clouds,190,2012-11-22 15:15:00
9:35 AM,58.3,47.7,68,30.02,10.0,South,15.0,19.6,N/A,,Scattered Clouds,190,2012-11-22 15:35:00
9:55 AM,58.1,46.6,65,30.02,10.0,SSW,16.1,-,N/A,,Scattered Clouds,200,2012-11-22 15:55:00
10:15 AM,59.0,45.3,60,30.00,10.0,South,16.1,24.2,N/A,,Mostly Cloudy,190,2012-11-22 16:15:00
10:35 AM,59.0,45.9,62,29.99,10.0,South,15.0,25.3,N/A,,Mostly Cloudy,180,2012-11-22 16:35:00
10:55 AM,59.9,46.4,61,29.98,10.0,South,17.3,23.0,N/A,,Scattered Clouds,190,2012-11-22 16:55:00
11:15 AM,62.8,46.8,56,29.97,10.0,South,13.8,20.7,N/A,,Clear,190,2012-11-22 17:15:00
11:35 AM,63.9,47.1,54,29.96,10.0,South,12.7,20.7,N/A,,Clear,190,2012-11-22 17:35:00
11:55 AM,63.7,46.4,53,29.95,10.0,South,16.1,23.0,N/A,,Clear,190,2012-11-22 17:55:00
12:15 PM,63.5,46.6,54,29.94,10.0,South,12.7,25.3,N/A,,Clear,180,2012-11-22 18:15:00
12:35 PM,64.6,47.1,53,29.93,10.0,South,12.7,23.0,N/A,,Clear,180,2012-11-22 18:35:00
12:55 PM,65.5,46.6,50,29.92,10.0,South,15.0,23.0,N/A,,Clear,190,2012-11-22 18:55:00
1:15 PM,66.7,47.3,50,29.91,10.0,South,16.1,21.9,N/A,,Clear,190,2012-11-22 19:15:00
1:35 PM,67.6,46.4,46,29.90,10.0,South,13.8,21.9,N/A,,Clear,190,2012-11-22 19:35:00
1:55 PM,67.8,45.9,45,29.89,10.0,SSW,18.4,25.3,N/A,,Clear,200,2012-11-22 19:55:00
2:15 PM,68.7,47.1,46,29.88,10.0,South,13.8,20.7,N/A,,Clear,190,2012-11-22 20:15:00
2:35 PM,68.0,47.1,47,29.88,10.0,South,12.7,18.4,N/A,,Clear,190,2012-11-22 20:35:00
2:55 PM,67.6,47.3,48,29.88,10.0,South,12.7,-,N/A,,Clear,180,2012-11-22 20:55:00
3:15 PM,67.6,47.3,48,29.88,10.0,South,10.4,-,N/A,,Clear,190,2012-11-22 21:15:00
3:35 PM,67.8,47.5,48,29.88,10.0,South,16.1,21.9,N/A,Thunderstorm,Clear,190,2012-11-22 21:35:00
3:55 PM,67.3,47.3,49,29.87,10.0,South,13.8,19.6,N/A,,Clear,180,2012-11-22 21:55:00
4:15 PM,66.7,47.3,50,29.88,10.0,South,12.7,19.6,N/A,,Clear,190,2012-11-22 22:15:00
4:35 PM,66.2,48.0,52,29.88,10.0,South,11.5,19.6,N/A,,Mostly Cloudy,180,2012-11-22 22:35:00
4:55 PM,65.8,47.3,51,29.88,10.0,South,12.7,19.6,N/A,,Overcast,190,2012-11-22 22:55:00
5:15 PM,64.8,47.3,53,29.89,10.0,South,13.8,19.6,N/A,,Scattered Clouds,190,2012-11-22 23:15:00
5:35 PM,64.9,47.5,53,29.90,10.0,South,15.0,-,N/A,,Mostly Cloudy,190,2012-11-22 23:35:00
5:55 PM,65.1,48.2,54,29.91,10.0,SSW,12.7,-,N/A,,Mostly Cloudy,210,2012-11-22 23:55:00
6:15 PM,64.4,50.0,59,29.92,10.0,SW,15.0,18.4,N/A,,Overcast,220,2012-11-23 00:15:00
6:35 PM,65.1,50.0,58,29.93,10.0,SW,11.5,20.7,N/A,,Overcast,220,2012-11-23 00:35:00
6:55 PM,61.7,52.7,72,29.94,10.0,SW,13.8,23.0,N/A,Rain-Thunderstorm,Light Thunderstorms and Rain,230,2012-11-23 00:55:00
7:15 PM,61.0,54.5,79,29.94,10.0,SW,11.5,-,N/A,,Drizzle,230,2012-11-23 01:15:00
7:35 PM,60.8,55.4,82,29.93,10.0,SW,13.8,18.4,N/A,,Overcast,230,2012-11-23 01:35:00
7:55 PM,60.8,55.4,82,29.93,10.0,SW,11.5,-,N/A,,Overcast,220,2012-11-23 01:55:00
8:15 PM,60.3,55.4,84,29.94,10.0,SW,9.2,-,N/A,,Overcast,230,2012-11-23 02:15:00
8:35 PM,61.0,54.9,80,29.95,10.0,WSW,11.5,-,N/A,,Overcast,250,2012-11-23 02:35:00
8:55 PM,61.7,54.7,78,29.96,10.0,West,17.3,-,N/A,,Overcast,270,2012-11-23 02:55:00
9:15 PM,60.1,46.0,60,29.99,10.0,WNW,18.4,27.6,N/A,,Overcast,300,2012-11-23 03:15:00
9:35 PM,58.1,44.8,61,30.01,10.0,WNW,12.7,-,N/A,,Overcast,290,2012-11-23 03:35:00
9:55 PM,56.5,44.1,63,30.03,10.0,WNW,24.2,33.4,N/A,,Mostly Cloudy,290,2012-11-23 03:55:00
10:15 PM,54.5,43.0,65,30.04,10.0,WNW,13.8,23.0,N/A,,Overcast,300,2012-11-23 04:15:00
10:35 PM,52.3,40.8,65,30.05,10.0,NW,17.3,26.5,N/A,,Mostly Cloudy,310,2012-11-23 04:35:00
10:55 PM,50.9,39.4,65,30.07,10.0,NW,11.5,-,N/A,,Clear,310,2012-11-23 04:55:00
11:15 PM,49.8,40.5,70,30.08,10.0,WNW,18.4,21.9,N/A,,Clear,300,2012-11-23 05:15:00
11:35 PM,49.1,38.8,68,30.09,10.0,WNW,15.0,21.9,N/A,,Clear,300,2012-11-23 05:35:00
11:55 PM,48.4,38.5,69,30.10,10.0,WNW,18.4,25.3,N/A,,Clear,300,2012-11-23 05:55:00